MMZO/ZLO METAR and TAF weather

Enter ICAO airport designator
Station Type Date Time Source
MMZO METAR 2019/12/07 01:41 UTC NOAA

MMZO 070141Z 00000KT 10SM BKN020 28/25 A2999 RMK 8/100


Station Type Date Time Source
MMZO Decoded METAR 2019/12/07 01:41 UTC NOAA

Manzanillo International , Mexico (MMZO) 19-09N 104-34W
Dec 06, 2019 - 08:41 PM EST / 2019.12.07 0141 UTC
Wind: Calm:0
Visibility: 10 mile(s):0
Sky conditions: mostly cloudy
Temperature: 82 F (28 C)
Dew Point: 77 F (25 C)
Relative Humidity: 83%
Pressure (altimeter): 29.99 in. Hg (1015 hPa)
ob: MMZO 070141Z 00000KT 10SM BKN020 28/25 A2999 RMK 8/100
cycle: 1

Station Type Date Time Source
MMZO TAF 2019/12/07 06:59 UTC NOAA

TAF MMZO 070455Z 0706/0806 03005KT P6SM SCT020
FM071600 24010KT P6SM SKC
FM080200 03005KT P6SM SCT020

Example: see airport list